Terminal Aerodrome Forecast
Issued by NWS

Home | Current Version | Previous Version | Text Only | Print | Product List | Glossary On
Versions: 1 2 3 4 5 6 7 8 9 10 11 12 13 14 15
000
FTUS44 KEPZ 302000 AAA
TAFDMN
TAF AMD
KDMN 302015Z 3020/3118 33010KT P6SM FEW060 SCT120 SCT250
     FM310000 30011KT P6SM VCTS SCT070CB SCT120 SCT250
     FM311200 08012KT P6SM VCTS SCT060CB BKN120 BKN250=

USA.gov is the U.S. government's official web portal to all federal, state and local government web resources and services.